Time;durP1;ratioP1;P1;durP2;ratioP2;P2;SDS_P1;SDS_P2;PMS_P1;PMS_P2;Temp;Humidity;BMP_temperature;BMP_pressure;BME280_temperature;BME280_humidity;BME280_pressure;Samples;Min_cycle;Max_cycle;Signal;HPM_P1;HPM_P2
2021/01/14 00:01:05;;;;;;;5.50;2.30;;;;;;;;;;5012909;28;20471;-58
2021/01/14 00:03:31;;;;;;;9.70;2.90;;;;;;;;;;5028122;28;20283;-60
2021/01/14 00:05:57;;;;;;;8.90;2.30;;;;;;;;;;5028398;28;20259;-59
2021/01/14 00:08:33;;;;;;;3.17;1.77;;;;;;;;;;5010121;28;20904;-60
2021/01/14 00:10:59;;;;;;;3.57;1.87;;;;;;;;;;5010467;28;20548;-57
2021/01/14 00:13:25;;;;;;;3.67;1.63;;;;;;;;;;5009799;28;20463;-57
2021/01/14 00:15:54;;;;;;;4.33;1.90;;;;;;;;;;5010513;28;20182;-57
2021/01/14 00:18:20;;;;;;;4.37;1.93;;;;;;;;;;5012681;28;20240;-57
2021/01/14 00:20:49;;;;;;;2.33;1.33;;;;;;;;;;5028183;28;20194;-57
2021/01/14 00:23:15;;;;;;;9.00;2.30;;;;;;;;;;5028108;28;20429;-60
2021/01/14 00:25:56;;;;;;;2.77;1.70;;;;;;;;;;5014457;28;20765;-58
2021/01/14 00:28:23;;;;;;;2.57;1.60;;;;;;;;;;5011951;28;20745;-58
2021/01/14 00:30:49;;;;;;;4.30;1.83;;;;;;;;;;5027341;28;20890;-58
2021/01/14 00:33:17;;;;;;;3.37;1.70;;;;;;;;;;5028239;28;20260;-60
2021/01/14 00:35:44;;;;;;;5.07;1.80;;;;;;;;;;5027127;28;20508;-58
2021/01/14 00:38:13;;;;;;;4.40;1.63;;;;;;;;;;5022398;28;20422;-57
2021/01/14 00:40:39;;;;;;;5.90;2.07;;;;;;;;;;4994086;28;20471;-57
2021/01/14 00:43:08;;;;;;;5.90;1.80;;;;;;;;;;5009631;28;20420;-58
2021/01/14 00:45:35;;;;;;;4.97;1.60;;;;;;;;;;5017430;28;20471;-57
2021/01/14 00:48:01;;;;;;;4.10;1.57;;;;;;;;;;5027184;28;20477;-60
2021/01/14 00:50:28;;;;;;;5.33;1.40;;;;;;;;;;5028064;28;20487;-58
2021/01/14 00:52:54;;;;;;;3.30;1.70;;;;;;;;;;5007576;28;20443;-58
2021/01/14 00:55:20;;;;;;;1.73;0.90;;;;;;;;;;5003421;28;20440;-58
2021/01/14 00:57:47;;;;;;;4.77;1.77;;;;;;;;;;5015219;28;20470;-58
2021/01/14 01:00:15;;;;;;;2.30;1.17;;;;;;;;;;5011336;28;20460;-58
2021/01/14 01:02:48;;;;;;;1.63;1.00;;;;;;;;;;5026218;28;20523;-59
2021/01/14 01:05:15;;;;;;;3.67;1.23;;;;;;;;;;5031958;28;20498;-57
2021/01/14 01:07:48;;;;;;;4.10;1.57;;;;;;;;;;5030303;28;20443;-58
2021/01/14 01:10:15;;;;;;;4.80;1.43;;;;;;;;;;5029766;28;20472;-58
2021/01/14 01:12:41;;;;;;;2.67;1.30;;;;;;;;;;5031075;28;20425;-57
2021/01/14 01:15:08;;;;;;;2.47;1.20;;;;;;;;;;5031428;28;20181;-58
2021/01/14 01:17:34;;;;;;;4.60;1.47;;;;;;;;;;5011267;28;20482;-58
2021/01/14 01:20:00;;;;;;;2.77;1.30;;;;;;;;;;5013337;28;20463;-57
2021/01/14 01:22:27;;;;;;;3.67;1.70;;;;;;;;;;5011944;28;20424;-58
2021/01/14 01:24:53;;;;;;;5.07;1.30;;;;;;;;;;5028123;28;20418;-58
2021/01/14 01:27:19;;;;;;;2.07;1.00;;;;;;;;;;5011746;28;20466;-58
2021/01/14 01:29:49;;;;;;;5.60;1.97;;;;;;;;;;5030902;28;20817;-57
2021/01/14 01:32:15;;;;;;;2.37;1.10;;;;;;;;;;5013280;28;20503;-57
2021/01/14 01:34:41;;;;;;;3.90;1.57;;;;;;;;;;5013764;28;20404;-59
2021/01/14 01:37:10;;;;;;;2.93;1.23;;;;;;;;;;5029963;28;20186;-60
2021/01/14 01:39:38;;;;;;;2.93;1.70;;;;;;;;;;5031195;28;20496;-58
2021/01/14 01:42:05;;;;;;;1.90;1.20;;;;;;;;;;5031092;28;20950;-57
2021/01/14 01:44:31;;;;;;;3.30;1.70;;;;;;;;;;5031809;28;20774;-58
2021/01/14 01:47:05;;;;;;;2.23;1.30;;;;;;;;;;5030347;28;20503;-57
2021/01/14 01:49:32;;;;;;;7.07;1.87;;;;;;;;;;5031108;28;20416;-56
2021/01/14 01:52:02;;;;;;;4.00;1.40;;;;;;;;;;5030891;28;21208;-57
2021/01/14 01:54:28;;;;;;;5.47;1.60;;;;;;;;;;5030960;28;20430;-57
2021/01/14 01:56:54;;;;;;;3.37;1.33;;;;;;;;;;4996134;28;20463;-57
2021/01/14 01:59:24;;;;;;;3.17;1.73;;;;;;;;;;5031416;28;20933;-57
2021/01/14 02:01:52;;;;;;;3.80;1.43;;;;;;;;;;5029869;28;20979;-58
2021/01/14 02:04:19;;;;;;;3.77;1.27;;;;;;;;;;5013246;28;20937;-57
2021/01/14 02:07:05;;;;;;;2.17;1.13;;;;;;;;;;5012418;28;20428;-57
2021/01/14 02:09:33;;;;;;;5.77;1.73;;;;;;;;;;5030204;28;20476;-57
2021/01/14 02:12:04;;;;;;;2.60;1.27;;;;;;;;;;5030669;28;20174;-58
2021/01/14 02:14:30;;;;;;;4.03;1.83;;;;;;;;;;5030725;28;20459;-57
2021/01/14 02:16:56;;;;;;;4.17;1.77;;;;;;;;;;5027493;28;20925;-57
2021/01/14 02:19:23;;;;;;;1.90;1.10;;;;;;;;;;5030093;28;20185;-59
2021/01/14 02:21:55;;;;;;;2.50;1.60;;;;;;;;;;5011969;28;20543;-57
2021/01/14 02:24:21;;;;;;;5.40;1.53;;;;;;;;;;5030115;28;20431;-57
2021/01/14 02:26:48;;;;;;;2.83;1.40;;;;;;;;;;5011091;28;20421;-58
2021/01/14 02:29:14;;;;;;;6.33;1.73;;;;;;;;;;5026131;28;20472;-58
2021/01/14 02:31:41;;;;;;;2.97;1.40;;;;;;;;;;5011256;28;20491;-57
2021/01/14 02:34:07;;;;;;;3.53;1.80;;;;;;;;;;5028417;28;20424;-57
2021/01/14 02:36:33;;;;;;;5.10;1.77;;;;;;;;;;5027151;28;20514;-57
2021/01/14 02:38:59;;;;;;;6.20;2.13;;;;;;;;;;5029944;28;20453;-57
2021/01/14 02:41:25;;;;;;;2.73;1.50;;;;;;;;;;5010851;28;20232;-59
2021/01/14 02:43:52;;;;;;;6.67;1.67;;;;;;;;;;5012045;28;20428;-58
2021/01/14 02:46:19;;;;;;;4.90;2.20;;;;;;;;;;5010815;28;20410;-58
2021/01/14 02:48:47;;;;;;;4.30;1.37;;;;;;;;;;4994651;28;20511;-58
2021/01/14 02:51:16;;;;;;;3.77;1.87;;;;;;;;;;5028634;28;20280;-58
2021/01/14 02:53:43;;;;;;;4.00;1.90;;;;;;;;;;5027733;28;20429;-59
2021/01/14 02:56:09;;;;;;;2.63;1.53;;;;;;;;;;5029380;28;20820;-58
2021/01/14 02:58:36;;;;;;;4.23;1.40;;;;;;;;;;5028591;28;20440;-57
2021/01/14 03:01:02;;;;;;;4.83;1.80;;;;;;;;;;5028930;28;20452;-57
2021/01/14 03:03:28;;;;;;;5.30;1.80;;;;;;;;;;5028772;28;20424;-58
2021/01/14 03:05:54;;;;;;;4.77;2.17;;;;;;;;;;5028719;28;20463;-58
2021/01/14 03:08:20;;;;;;;4.80;1.97;;;;;;;;;;5027852;28;20648;-58
2021/01/14 03:10:46;;;;;;;2.97;1.60;;;;;;;;;;5028501;28;20420;-58
2021/01/14 03:13:12;;;;;;;3.17;1.80;;;;;;;;;;5028699;28;20448;-58
2021/01/14 03:15:38;;;;;;;5.93;1.67;;;;;;;;;;5029112;28;20428;-58
2021/01/14 03:18:04;;;;;;;4.17;2.00;;;;;;;;;;5011079;28;20519;-58
2021/01/14 03:20:30;;;;;;;3.53;1.57;;;;;;;;;;4994247;28;20205;-58
2021/01/14 03:23:02;;;;;;;3.67;1.63;;;;;;;;;;5016827;28;20776;-59
2021/01/14 03:25:28;;;;;;;4.03;1.47;;;;;;;;;;5027890;28;20759;-59
2021/01/14 03:27:55;;;;;;;4.40;1.63;;;;;;;;;;5010034;28;20500;-58
2021/01/14 03:30:21;;;;;;;3.17;1.40;;;;;;;;;;5010237;28;20210;-58
2021/01/14 03:32:47;;;;;;;3.63;1.80;;;;;;;;;;5009910;28;20439;-59
2021/01/14 03:35:19;;;;;;;2.10;1.63;;;;;;;;;;5028607;28;20498;-59
2021/01/14 03:37:45;;;;;;;4.87;1.63;;;;;;;;;;5004953;28;20422;-58
2021/01/14 03:40:11;;;;;;;2.77;1.50;;;;;;;;;;5010663;28;20452;-58
2021/01/14 03:42:38;;;;;;;5.00;2.07;;;;;;;;;;5009970;28;20461;-58
2021/01/14 03:45:07;;;;;;;4.60;1.73;;;;;;;;;;5027693;28;20424;-59
2021/01/14 03:47:33;;;;;;;4.70;2.07;;;;;;;;;;5028345;28;20528;-60
2021/01/14 03:50:00;;;;;;;2.80;1.60;;;;;;;;;;5010620;28;20482;-58
2021/01/14 03:52:26;;;;;;;5.33;2.10;;;;;;;;;;5028141;28;20432;-58
2021/01/14 03:54:56;;;;;;;4.37;1.63;;;;;;;;;;5010773;28;20440;-58
2021/01/14 03:57:22;;;;;;;3.13;1.47;;;;;;;;;;5027386;28;20428;-58
2021/01/14 03:59:48;;;;;;;5.60;2.10;;;;;;;;;;5028464;28;20421;-58
2021/01/14 04:02:14;;;;;;;2.70;1.43;;;;;;;;;;5010449;28;20424;-58
2021/01/14 04:04:41;;;;;;;3.17;2.00;;;;;;;;;;5009417;28;20416;-58
2021/01/14 04:07:14;;;;;;;4.50;1.63;;;;;;;;;;5006209;28;20483;-59
2021/01/14 04:09:44;;;;;;;2.73;1.20;;;;;;;;;;5026355;28;20789;-58
2021/01/14 04:12:10;;;;;;;7.43;2.00;;;;;;;;;;5028554;28;20859;-58
2021/01/14 04:14:36;;;;;;;4.00;1.53;;;;;;;;;;5010488;28;20449;-58
2021/01/14 04:17:02;;;;;;;4.73;1.60;;;;;;;;;;5008616;28;20946;-58
2021/01/14 04:19:29;;;;;;;6.07;1.53;;;;;;;;;;5010673;28;20424;-59
2021/01/14 04:21:55;;;;;;;3.53;1.60;;;;;;;;;;5010710;28;20523;-58
2021/01/14 04:24:21;;;;;;;5.80;2.30;;;;;;;;;;5009925;28;20475;-58
2021/01/14 04:26:48;;;;;;;5.87;2.17;;;;;;;;;;5008849;28;20946;-58
2021/01/14 04:29:17;;;;;;;2.93;1.50;;;;;;;;;;5027486;28;20668;-58
2021/01/14 04:31:43;;;;;;;3.13;1.20;;;;;;;;;;5027968;28;20941;-58
2021/01/14 04:34:12;;;;;;;3.70;1.67;;;;;;;;;;5027518;28;20452;-58
2021/01/14 04:36:38;;;;;;;2.23;1.47;;;;;;;;;;5027422;28;20482;-58
2021/01/14 04:39:04;;;;;;;2.67;1.50;;;;;;;;;;5029333;28;20756;-58
2021/01/14 04:41:49;;;;;;;1.80;1.30;;;;;;;;;;5013617;28;20463;-58
2021/01/14 04:44:15;;;;;;;2.23;1.13;;;;;;;;;;5032557;28;20408;-58
2021/01/14 04:46:48;;;;;;;3.70;1.30;;;;;;;;;;5013800;28;20417;-58
2021/01/14 04:49:16;;;;;;;3.47;1.20;;;;;;;;;;5031643;28;20455;-58
2021/01/14 04:51:43;;;;;;;1.33;1.00;;;;;;;;;;5014238;28;20446;-58
2021/01/14 04:54:33;;;;;;;1.83;1.50;;;;;;;;;;5031860;28;20543;-58
2021/01/14 04:57:03;;;;;;;3.20;0.90;;;;;;;;;;5025337;28;20428;-58
2021/01/14 04:59:32;;;;;;;3.73;1.30;;;;;;;;;;5013818;28;20481;-60
2021/01/14 05:01:58;;;;;;;2.37;1.27;;;;;;;;;;5031765;28;20466;-58
2021/01/14 05:04:29;;;;;;;1.87;1.37;;;;;;;;;;5031645;28;20988;-58
2021/01/14 05:06:59;;;;;;;3.23;1.27;;;;;;;;;;5023499;28;20873;-58
2021/01/14 05:09:28;;;;;;;4.77;2.07;;;;;;;;;;5039932;28;20478;-58
2021/01/14 05:11:58;;;;;;;3.20;1.30;;;;;;;;;;5031089;28;20439;-58
2021/01/14 05:14:33;;;;;;;3.50;1.57;;;;;;;;;;5029869;28;20443;-59
2021/01/14 05:17:02;;;;;;;1.07;0.97;;;;;;;;;;5030443;28;20412;-59
2021/01/14 05:19:28;;;;;;;3.73;0.87;;;;;;;;;;5013308;28;20428;-58
2021/01/14 05:21:59;;;;;;;4.07;1.30;;;;;;;;;;5031052;28;20510;-59
2021/01/14 05:24:25;;;;;;;2.30;0.90;;;;;;;;;;5013685;28;20436;-59
2021/01/14 05:26:54;;;;;;;1.57;1.30;;;;;;;;;;5030823;28;20523;-58
2021/01/14 05:29:21;;;;;;;1.57;1.30;;;;;;;;;;5012800;28;20429;-58
2021/01/14 05:31:48;;;;;;;3.67;1.60;;;;;;;;;;5018871;28;20490;-58
2021/01/14 05:34:15;;;;;;;1.37;0.73;;;;;;;;;;5028904;28;20919;-58
2021/01/14 05:36:57;;;;;;;1.93;1.00;;;;;;;;;;5005990;28;20468;-58
2021/01/14 05:39:24;;;;;;;3.07;1.30;;;;;;;;;;5029488;28;20962;-58
2021/01/14 05:41:50;;;;;;;2.07;1.20;;;;;;;;;;5029983;28;20559;-58
2021/01/14 05:44:16;;;;;;;2.00;0.93;;;;;;;;;;5017335;28;20764;-58
2021/01/14 05:46:43;;;;;;;1.83;1.00;;;;;;;;;;5001708;28;20525;-58
2021/01/14 05:49:09;;;;;;;2.10;1.03;;;;;;;;;;5022246;28;20420;-59
2021/01/14 05:51:36;;;;;;;2.67;1.10;;;;;;;;;;5025194;28;20468;-58
2021/01/14 05:54:05;;;;;;;4.03;1.13;;;;;;;;;;5030647;28;20428;-58
2021/01/14 05:56:35;;;;;;;1.77;1.33;;;;;;;;;;5027594;28;20720;-58
2021/01/14 05:59:01;;;;;;;3.30;1.43;;;;;;;;;;5030302;28;20424;-58
2021/01/14 06:01:28;;;;;;;2.23;1.27;;;;;;;;;;5024358;28;20449;-58
2021/01/14 06:03:54;;;;;;;2.40;1.10;;;;;;;;;;5024633;28;20478;-58
2021/01/14 06:06:20;;;;;;;3.37;1.20;;;;;;;;;;5008672;28;20425;-58
2021/01/14 06:08:46;;;;;;;4.07;0.90;;;;;;;;;;5029906;28;20507;-57
2021/01/14 06:11:19;;;;;;;2.30;1.27;;;;;;;;;;5030816;28;20784;-57
2021/01/14 06:13:45;;;;;;;1.83;1.07;;;;;;;;;;5029517;28;20448;-58
2021/01/14 06:16:12;;;;;;;3.37;1.20;;;;;;;;;;5030644;28;20413;-58
2021/01/14 06:18:38;;;;;;;2.67;1.37;;;;;;;;;;5029529;28;20193;-57
2021/01/14 06:21:04;;;;;;;1.90;0.90;;;;;;;;;;5030728;28;20456;-58
2021/01/14 06:23:44;;;;;;;1.63;1.23;;;;;;;;;;5029597;28;20424;-60
2021/01/14 06:26:10;;;;;;;4.40;1.10;;;;;;;;;;5030405;28;20401;-58
2021/01/14 06:28:36;;;;;;;3.40;1.33;;;;;;;;;;5029678;28;20401;-58
2021/01/14 06:31:03;;;;;;;1.23;0.90;;;;;;;;;;5011986;28;20178;-58
2021/01/14 06:33:30;;;;;;;2.43;1.00;;;;;;;;;;5030049;28;20813;-58
2021/01/14 06:36:09;;;;;;;4.10;1.40;;;;;;;;;;5030190;28;20431;-58
2021/01/14 06:38:45;;;;;;;3.03;1.33;;;;;;;;;;5029523;28;20431;-56
2021/01/14 06:41:21;;;;;;;3.80;1.30;;;;;;;;;;5029596;28;20466;-56
2021/01/14 06:43:48;;;;;;;3.03;1.10;;;;;;;;;;5030298;28;20440;-56
2021/01/14 06:46:19;;;;;;;3.87;1.40;;;;;;;;;;5029719;28;20408;-56
2021/01/14 06:48:48;;;;;;;1.57;1.13;;;;;;;;;;5030236;28;20393;-57
2021/01/14 06:51:19;;;;;;;1.40;1.00;;;;;;;;;;5029636;28;20930;-57
2021/01/14 06:53:47;;;;;;;2.47;0.97;;;;;;;;;;5025487;28;20550;-57
2021/01/14 06:56:14;;;;;;;3.50;1.50;;;;;;;;;;5029780;28;20982;-56
2021/01/14 06:58:43;;;;;;;2.50;1.40;;;;;;;;;;5029012;28;20418;-57
2021/01/14 07:01:11;;;;;;;2.20;1.30;;;;;;;;;;5026411;28;20464;-57
2021/01/14 07:03:58;;;;;;;2.57;1.47;;;;;;;;;;5029343;28;20431;-57
2021/01/14 07:06:27;;;;;;;3.13;1.30;;;;;;;;;;5028916;28;20902;-57
2021/01/14 07:09:02;;;;;;;2.83;1.00;;;;;;;;;;5022490;28;20472;-57
2021/01/14 07:11:32;;;;;;;4.00;1.10;;;;;;;;;;5028586;28;20428;-57
2021/01/14 07:14:06;;;;;;;2.47;1.20;;;;;;;;;;5029346;28;20416;-57
2021/01/14 07:16:33;;;;;;;2.77;1.30;;;;;;;;;;5006097;28;20444;-57
2021/01/14 07:18:59;;;;;;;1.37;1.27;;;;;;;;;;5029028;28;20847;-58
2021/01/14 07:21:38;;;;;;;2.27;1.00;;;;;;;;;;5028444;28;20556;-57
2021/01/14 07:24:19;;;;;;;2.87;1.27;;;;;;;;;;5028705;28;20221;-57
2021/01/14 07:26:51;;;;;;;3.10;1.67;;;;;;;;;;5010905;28;20516;-58
2021/01/14 07:29:17;;;;;;;4.00;1.53;;;;;;;;;;5029084;28;20503;-57
2021/01/14 07:31:48;;;;;;;1.37;0.90;;;;;;;;;;5010655;28;20559;-57
2021/01/14 07:34:36;;;;;;;2.07;1.03;;;;;;;;;;5028578;28;20435;-58
2021/01/14 07:37:02;;;;;;;1.97;1.20;;;;;;;;;;5010644;28;20418;-57
2021/01/14 07:39:47;;;;;;;2.43;1.20;;;;;;;;;;5027983;28;20527;-57
2021/01/14 07:42:21;;;;;;;2.77;1.00;;;;;;;;;;5010783;28;20470;-57
2021/01/14 07:44:51;;;;;;;3.13;1.40;;;;;;;;;;5025155;28;20416;-58
2021/01/14 07:47:23;;;;;;;1.00;0.87;;;;;;;;;;5026049;28;20424;-56
2021/01/14 07:49:49;;;;;;;2.20;1.20;;;;;;;;;;5029416;28;20960;-57
2021/01/14 07:52:26;;;;;;;2.97;1.00;;;;;;;;;;5029135;28;20482;-57
2021/01/14 07:54:59;;;;;;;3.57;1.33;;;;;;;;;;5028345;28;20847;-57
2021/01/14 07:57:28;;;;;;;3.23;1.17;;;;;;;;;;5028269;28;20412;-57
2021/01/14 07:59:58;;;;;;;3.70;1.20;;;;;;;;;;5028203;28;20431;-57
2021/01/14 08:02:24;;;;;;;2.53;1.10;;;;;;;;;;5028229;28;20451;-57
2021/01/14 08:04:53;;;;;;;4.13;1.10;;;;;;;;;;5028332;28;20498;-58
2021/01/14 08:07:26;;;;;;;2.50;1.37;;;;;;;;;;5014637;28;20445;-57
2021/01/14 08:09:52;;;;;;;2.70;1.40;;;;;;;;;;5022026;28;20491;-57
2021/01/14 08:12:21;;;;;;;2.30;1.23;;;;;;;;;;5009996;28;20730;-59
2021/01/14 08:14:48;;;;;;;3.10;1.33;;;;;;;;;;5029389;28;20474;-57
2021/01/14 08:17:27;;;;;;;1.50;1.03;;;;;;;;;;5029234;28;20440;-58
2021/01/14 08:19:53;;;;;;;2.47;1.13;;;;;;;;;;5031375;28;20427;-57
2021/01/14 08:22:20;;;;;;;2.37;1.43;;;;;;;;;;5032537;28;20300;-58
2021/01/14 08:24:53;;;;;;;2.20;1.30;;;;;;;;;;5033219;28;20404;-57
2021/01/14 08:27:22;;;;;;;2.90;1.37;;;;;;;;;;5031643;28;20452;-57
2021/01/14 08:29:51;;;;;;;1.57;0.90;;;;;;;;;;5027850;28;20417;-57
2021/01/14 08:32:35;;;;;;;1.60;1.00;;;;;;;;;;5031991;28;20794;-57
2021/01/14 08:35:06;;;;;;;2.13;1.10;;;;;;;;;;5013116;28;20448;-57
2021/01/14 08:37:36;;;;;;;2.23;1.10;;;;;;;;;;5029567;28;20474;-57
2021/01/14 08:40:07;;;;;;;1.93;1.03;;;;;;;;;;5024386;28;20420;-56
2021/01/14 08:42:34;;;;;;;3.30;1.17;;;;;;;;;;5015278;28;20866;-58
2021/01/14 08:45:19;;;;;;;3.33;1.50;;;;;;;;;;5031757;28;20206;-57
2021/01/14 08:47:54;;;;;;;2.93;0.90;;;;;;;;;;5013480;28;20467;-57
2021/01/14 08:50:32;;;;;;;3.33;1.20;;;;;;;;;;5030505;28;20501;-58
2021/01/14 08:52:59;;;;;;;3.20;1.17;;;;;;;;;;5020932;28;20424;-57
2021/01/14 08:55:26;;;;;;;1.57;1.20;;;;;;;;;;5030651;28;20651;-57
2021/01/14 08:57:53;;;;;;;4.20;1.33;;;;;;;;;;5033703;28;20436;-58
2021/01/14 09:00:19;;;;;;;1.83;1.50;;;;;;;;;;5031676;28;20455;-57
2021/01/14 09:02:45;;;;;;;4.87;1.23;;;;;;;;;;5030696;28;20447;-57
2021/01/14 09:05:15;;;;;;;3.33;1.37;;;;;;;;;;5006897;28;20431;-59
2021/01/14 09:07:41;;;;;;;4.03;1.53;;;;;;;;;;5031198;28;20445;-57
2021/01/14 09:10:08;;;;;;;1.63;1.07;;;;;;;;;;5031210;28;20483;-57
2021/01/14 09:12:37;;;;;;;3.70;1.10;;;;;;;;;;5031427;28;20412;-57
2021/01/14 09:15:04;;;;;;;3.23;1.37;;;;;;;;;;5005978;28;20257;-56
2021/01/14 09:17:31;;;;;;;5.50;1.73;;;;;;;;;;5028088;28;20478;-56
2021/01/14 09:19:57;;;;;;;4.53;1.60;;;;;;;;;;5027958;28;20456;-58
2021/01/14 09:22:24;;;;;;;2.33;1.40;;;;;;;;;;5008335;28;20478;-58
2021/01/14 09:24:50;;;;;;;3.57;1.20;;;;;;;;;;5024588;28;20420;-57
2021/01/14 09:27:16;;;;;;;2.27;1.23;;;;;;;;;;5026460;28;20421;-57
2021/01/14 09:29:42;;;;;;;9.00;2.10;;;;;;;;;;5021368;28;20449;-56
2021/01/14 09:32:14;;;;;;;4.23;1.47;;;;;;;;;;5031233;28;20790;-59
2021/01/14 09:34:41;;;;;;;4.40;1.73;;;;;;;;;;5031415;28;20413;-57
2021/01/14 09:37:19;;;;;;;1.97;1.53;;;;;;;;;;5026883;28;20430;-57
2021/01/14 09:39:46;;;;;;;4.40;2.30;;;;;;;;;;5028800;28;20428;-57
2021/01/14 09:42:13;;;;;;;2.47;2.00;;;;;;;;;;5031189;28;20452;-56
2021/01/14 09:44:39;;;;;;;3.23;2.30;;;;;;;;;;5018620;28;20427;-57
2021/01/14 09:47:05;;;;;;;3.00;2.00;;;;;;;;;;5028619;28;20424;-57
2021/01/14 09:49:32;;;;;;;3.50;1.80;;;;;;;;;;5013756;28;20492;-57
2021/01/14 09:51:58;;;;;;;2.73;1.90;;;;;;;;;;5028156;28;20424;-58
2021/01/14 09:54:25;;;;;;;3.67;2.03;;;;;;;;;;5030438;28;20425;-58
2021/01/14 09:56:51;;;;;;;3.70;2.47;;;;;;;;;;5010029;28;20205;-57
2021/01/14 09:59:19;;;;;;;3.07;2.17;;;;;;;;;;5030873;28;20498;-57
2021/01/14 10:01:57;;;;;;;3.20;2.67;;;;;;;;;;5011802;28;20480;-56
2021/01/14 10:04:25;;;;;;;4.50;2.73;;;;;;;;;;5028788;28;20474;-59
2021/01/14 10:06:56;;;;;;;3.63;2.90;;;;;;;;;;5015659;28;20512;-57
2021/01/14 10:09:22;;;;;;;3.20;2.60;;;;;;;;;;5002432;28;20991;-58
2021/01/14 10:11:49;;;;;;;6.03;2.77;;;;;;;;;;5021598;28;20482;-59
2021/01/14 10:14:22;;;;;;;4.23;2.87;;;;;;;;;;5030346;28;20451;-57
2021/01/14 10:16:48;;;;;;;4.83;3.27;;;;;;;;;;5031077;28;20448;-57
2021/01/14 10:19:15;;;;;;;4.63;3.17;;;;;;;;;;5012623;28;20658;-57
2021/01/14 10:21:42;;;;;;;3.83;3.13;;;;;;;;;;5030415;28;20463;-57
2021/01/14 10:24:29;;;;;;;6.03;3.37;;;;;;;;;;5013215;28;20405;-57
2021/01/14 10:27:10;;;;;;;7.77;3.33;;;;;;;;;;5030260;28;20516;-57
2021/01/14 10:29:39;;;;;;;5.53;3.77;;;;;;;;;;5030175;28;20496;-57
2021/01/14 10:32:07;;;;;;;5.30;3.77;;;;;;;;;;5031064;28;20466;-57
2021/01/14 10:34:39;;;;;;;5.33;4.10;;;;;;;;;;5012886;28;20571;-57
2021/01/14 10:37:05;;;;;;;5.60;4.53;;;;;;;;;;5029157;28;20439;-61
2021/01/14 10:39:41;;;;;;;4.70;4.20;;;;;;;;;;5019259;28;20420;-56
2021/01/14 10:42:25;;;;;;;7.73;5.27;;;;;;;;;;5029765;28;20452;-57
2021/01/14 10:44:54;;;;;;;6.77;4.80;;;;;;;;;;5030854;28;20420;-57
2021/01/14 10:47:22;;;;;;;5.57;4.30;;;;;;;;;;5011949;28;20437;-58
2021/01/14 10:49:48;;;;;;;5.77;4.50;;;;;;;;;;5028170;28;20436;-57
2021/01/14 10:52:14;;;;;;;5.97;5.17;;;;;;;;;;5030366;28;20409;-58
2021/01/14 10:54:40;;;;;;;6.33;4.60;;;;;;;;;;5029611;28;20435;-58
2021/01/14 10:57:06;;;;;;;5.37;4.87;;;;;;;;;;5023250;28;20458;-58
2021/01/14 10:59:35;;;;;;;6.37;5.00;;;;;;;;;;5018402;28;20872;-57
2021/01/14 11:02:05;;;;;;;5.77;5.10;;;;;;;;;;5010531;28;20211;-58
2021/01/14 11:04:31;;;;;;;9.73;5.73;;;;;;;;;;5028600;28;20470;-57
2021/01/14 11:06:57;;;;;;;5.07;4.57;;;;;;;;;;5011353;28;20427;-57
2021/01/14 11:09:24;;;;;;;19.63;5.57;;;;;;;;;;5028529;28;20510;-57
2021/01/14 11:11:50;;;;;;;5.60;5.10;;;;;;;;;;5027876;28;20994;-57
2021/01/14 11:14:16;;;;;;;6.30;5.70;;;;;;;;;;5028548;28;20507;-57
2021/01/14 11:16:42;;;;;;;5.83;4.80;;;;;;;;;;5027353;28;20485;-57
2021/01/14 11:19:10;;;;;;;6.30;5.27;;;;;;;;;;5029114;28;20515;-57
2021/01/14 11:21:37;;;;;;;6.13;5.00;;;;;;;;;;5029153;28;20452;-58
2021/01/14 11:24:03;;;;;;;6.03;5.03;;;;;;;;;;5029554;28;20495;-57
2021/01/14 11:26:30;;;;;;;5.20;4.40;;;;;;;;;;5028699;28;20421;-57
2021/01/14 11:28:56;;;;;;;6.33;4.70;;;;;;;;;;5011672;28;20397;-57
2021/01/14 11:31:27;;;;;;;5.70;5.17;;;;;;;;;;5027440;28;20433;-57
2021/01/14 11:33:53;;;;;;;5.87;4.53;;;;;;;;;;5003403;28;20895;-57
2021/01/14 11:36:20;;;;;;;6.03;4.93;;;;;;;;;;5011030;28;20739;-59
2021/01/14 11:38:47;;;;;;;5.77;5.17;;;;;;;;;;5028946;28;20511;-57
2021/01/14 11:41:17;;;;;;;7.53;5.07;;;;;;;;;;5028924;28;20452;-56
2021/01/14 11:43:43;;;;;;;5.20;4.23;;;;;;;;;;5028961;28;20413;-57
2021/01/14 11:46:09;;;;;;;7.47;4.43;;;;;;;;;;5027643;28;20501;-57
2021/01/14 11:48:35;;;;;;;6.73;4.50;;;;;;;;;;4994707;28;20475;-57
2021/01/14 11:51:01;;;;;;;4.53;4.03;;;;;;;;;;5028947;28;20512;-57
2021/01/14 11:53:27;;;;;;;6.63;4.63;;;;;;;;;;5028731;28;20526;-57
2021/01/14 11:55:53;;;;;;;4.50;3.40;;;;;;;;;;5026059;28;20541;-58
2021/01/14 11:58:19;;;;;;;7.40;4.00;;;;;;;;;;5015582;28;20413;-57
2021/01/14 12:00:45;;;;;;;9.60;4.40;;;;;;;;;;5026802;28;20550;-57
2021/01/14 12:03:11;;;;;;;10.33;3.47;;;;;;;;;;5028761;28;20459;-57
2021/01/14 12:05:37;;;;;;;5.97;3.50;;;;;;;;;;5028639;28;20750;-56
2021/01/14 12:08:04;;;;;;;4.33;3.83;;;;;;;;;;5010342;28;20945;-58
2021/01/14 12:10:30;;;;;;;9.23;3.33;;;;;;;;;;5028058;28;20773;-59
2021/01/14 12:12:56;;;;;;;3.60;3.30;;;;;;;;;;5028621;28;20901;-57
2021/01/14 12:15:22;;;;;;;8.30;3.77;;;;;;;;;;5028551;28;20421;-57
2021/01/14 12:17:48;;;;;;;3.23;2.87;;;;;;;;;;5028204;28;20502;-57
2021/01/14 12:20:14;;;;;;;4.43;3.17;;;;;;;;;;5009017;28;20475;-57
2021/01/14 12:22:41;;;;;;;5.63;3.13;;;;;;;;;;5011279;28;20617;-58
2021/01/14 12:25:08;;;;;;;4.27;2.90;;;;;;;;;;5010950;28;20417;-57
2021/01/14 12:27:34;;;;;;;5.10;2.70;;;;;;;;;;5027865;28;20962;-58
2021/01/14 12:30:00;;;;;;;6.37;2.97;;;;;;;;;;5028671;28;20413;-57
2021/01/14 12:32:27;;;;;;;3.83;3.27;;;;;;;;;;5028713;28;20435;-57
2021/01/14 12:34:53;;;;;;;6.63;3.33;;;;;;;;;;4994633;28;20474;-56
2021/01/14 12:37:20;;;;;;;3.37;2.70;;;;;;;;;;5028211;28;20428;-56
2021/01/14 12:39:46;;;;;;;2.90;2.70;;;;;;;;;;5028604;28;20427;-57
2021/01/14 12:42:12;;;;;;;3.53;2.90;;;;;;;;;;5028475;28;20965;-57
2021/01/14 12:44:39;;;;;;;3.50;2.87;;;;;;;;;;5028719;28;20511;-57
2021/01/14 12:47:05;;;;;;;4.23;3.00;;;;;;;;;;5024518;28;20841;-58
2021/01/14 12:49:31;;;;;;;3.87;2.03;;;;;;;;;;5006267;28;20475;-57
2021/01/14 12:51:57;;;;;;;2.57;2.37;;;;;;;;;;5028918;28;20412;-57
2021/01/14 12:54:23;;;;;;;4.17;2.53;;;;;;;;;;5028084;28;20444;-56
2021/01/14 12:56:49;;;;;;;3.83;2.80;;;;;;;;;;5028749;28;20404;-58
2021/01/14 12:59:16;;;;;;;2.70;2.50;;;;;;;;;;5029365;28;20417;-58
2021/01/14 13:01:42;;;;;;;4.83;3.20;;;;;;;;;;5031802;28;20838;-57
2021/01/14 13:04:10;;;;;;;4.40;2.90;;;;;;;;;;5032124;28;20424;-58
2021/01/14 13:06:38;;;;;;;3.07;2.77;;;;;;;;;;5032573;28;20522;-57
2021/01/14 13:09:05;;;;;;;3.40;2.37;;;;;;;;;;5030570;28;20529;-57
2021/01/14 13:11:32;;;;;;;3.97;2.70;;;;;;;;;;5025233;28;20859;-57
2021/01/14 13:13:58;;;;;;;3.97;2.77;;;;;;;;;;5025332;28;20511;-57
2021/01/14 13:16:50;;;;;;;4.30;2.50;;;;;;;;;;5024463;28;20513;-57
2021/01/14 13:19:20;;;;;;;3.53;2.80;;;;;;;;;;5011161;28;20483;-59
2021/01/14 13:21:47;;;;;;;4.07;2.63;;;;;;;;;;5018055;28;20492;-58
2021/01/14 13:24:13;;;;;;;2.90;2.50;;;;;;;;;;5033075;28;20404;-58
2021/01/14 13:26:40;;;;;;;10.90;3.00;;;;;;;;;;5032112;28;20440;-58
2021/01/14 13:29:09;;;;;;;13.27;3.30;;;;;;;;;;5029821;28;20452;-60
2021/01/14 13:31:40;;;;;;;7.60;3.10;;;;;;;;;;5007512;28;20464;-58
2021/01/14 13:34:06;;;;;;;9.30;2.93;;;;;;;;;;5026938;28;20430;-59
2021/01/14 13:36:35;;;;;;;5.37;2.70;;;;;;;;;;5025656;28;20924;-56
2021/01/14 13:39:01;;;;;;;9.90;3.10;;;;;;;;;;5030707;28;20409;-59
2021/01/14 13:41:27;;;;;;;4.00;2.33;;;;;;;;;;5031114;28;20521;-56
2021/01/14 13:43:53;;;;;;;9.03;2.77;;;;;;;;;;5031594;28;20428;-57
2021/01/14 13:46:19;;;;;;;5.70;2.47;;;;;;;;;;5002320;28;20444;-57
2021/01/14 13:48:45;;;;;;;7.77;2.97;;;;;;;;;;5032281;28;20261;-56
2021/01/14 13:51:11;;;;;;;8.37;3.60;;;;;;;;;;5021948;28;20659;-61
2021/01/14 13:53:37;;;;;;;4.40;2.53;;;;;;;;;;5024916;28;20639;-57
2021/01/14 13:56:03;;;;;;;3.20;2.60;;;;;;;;;;5011611;28;20475;-56
2021/01/14 13:58:32;;;;;;;4.13;2.50;;;;;;;;;;5031135;28;20550;-57
2021/01/14 14:00:58;;;;;;;4.90;2.57;;;;;;;;;;5016585;28;20468;-57
2021/01/14 14:03:24;;;;;;;3.87;2.50;;;;;;;;;;5027078;28;20537;-57
2021/01/14 14:05:50;;;;;;;5.00;2.20;;;;;;;;;;5024436;28;20182;-57
2021/01/14 14:08:16;;;;;;;4.33;2.50;;;;;;;;;;5013285;28;20445;-58
2021/01/14 14:10:44;;;;;;;3.10;2.40;;;;;;;;;;5014517;28;20416;-57
2021/01/14 14:13:11;;;;;;;3.93;1.97;;;;;;;;;;5017556;28;20426;-57
2021/01/14 14:15:37;;;;;;;3.17;2.23;;;;;;;;;;5024708;28;20433;-58
2021/01/14 14:18:03;;;;;;;3.27;2.33;;;;;;;;;;5009664;28;20425;-57
2021/01/14 14:20:29;;;;;;;3.90;1.90;;;;;;;;;;5006627;28;20482;-57
2021/01/14 14:22:58;;;;;;;2.90;2.13;;;;;;;;;;5019319;28;20190;-57
2021/01/14 14:25:24;;;;;;;4.07;2.40;;;;;;;;;;5011612;28;20201;-57
2021/01/14 14:27:50;;;;;;;3.43;2.57;;;;;;;;;;5028003;28;20452;-57
2021/01/14 14:30:16;;;;;;;4.60;2.90;;;;;;;;;;5024277;28;20494;-58
2021/01/14 14:32:44;;;;;;;4.33;2.37;;;;;;;;;;5013008;28;20421;-57
2021/01/14 14:35:10;;;;;;;2.87;2.03;;;;;;;;;;5024423;28;20426;-57
2021/01/14 14:37:36;;;;;;;5.13;2.40;;;;;;;;;;5028919;28;20546;-58
2021/01/14 14:40:03;;;;;;;3.60;2.50;;;;;;;;;;5026026;28;20428;-58
2021/01/14 14:42:29;;;;;;;3.13;2.17;;;;;;;;;;5004392;28;20605;-57
2021/01/14 14:44:55;;;;;;;3.43;2.40;;;;;;;;;;5027925;28;20416;-57
2021/01/14 14:47:21;;;;;;;2.33;2.13;;;;;;;;;;5007823;28;20945;-60
2021/01/14 14:49:47;;;;;;;3.23;2.40;;;;;;;;;;5023218;28;20744;-57